Time;durP1;ratioP1;P1;durP2;ratioP2;P2;SDS_P1;SDS_P2;PMS_P1;PMS_P2;Temp;Humidity;BMP_temperature;BMP_pressure;BME280_temperature;BME280_humidity;BME280_pressure;Samples;Min_cycle;Max_cycle;Signal;HPM_P1;HPM_P2
2022/02/03 00:00:04;;;;;;;;;6.50;6.50;;;;;12.63;54.34;101824.09;2078084;28;48205;-57
2022/02/03 00:01:10;;;;;;;;;5.00;5.00;;;;;12.64;54.41;101822.31;2071343;28;47340;-59
2022/02/03 00:05:12;;;;;;;;;4.00;4.00;;;;;12.63;54.31;101815.25;2048100;28;47881;-59
2022/02/03 00:06:13;;;;;;;;;5.00;4.25;;;;;12.62;54.39;101813.47;2053326;28;48410;-59
2022/02/03 00:07:20;;;;;;;;;5.00;4.25;;;;;12.62;54.81;101814.34;2046525;28;45182;-57
2022/02/03 00:26:11;;;;;;;;;6.25;5.00;;;;;12.58;54.37;101796.66;2044924;28;47599;-58
2022/02/03 00:27:35;;;;;;;;;5.25;4.50;;;;;12.57;54.44;101794.88;2044866;28;47955;-57
2022/02/03 00:28:44;;;;;;;;;5.25;4.00;;;;;12.56;54.45;101792.25;2039734;28;47797;-59
2022/02/03 00:32:08;;;;;;;;;5.75;4.75;;;;;12.57;54.63;101801.97;2021899;29;47890;-60
2022/02/03 00:34:26;;;;;;;;;4.75;4.00;;;;;12.56;54.60;101798.44;2046356;28;47927;-60
2022/02/03 00:35:57;;;;;;;;;7.00;5.75;;;;;12.57;54.39;101800.19;2046381;28;48028;-59
2022/02/03 00:49:02;;;;;;;;;3.25;3.25;;;;;12.52;53.93;101774.53;2007292;29;48007;-59
2022/02/03 00:50:12;;;;;;;;;3.75;3.75;;;;;12.51;54.50;101779.00;1995246;29;48181;-60
2022/02/03 00:51:12;;;;;;;;;6.00;4.25;;;;;12.50;54.37;101782.56;2013123;28;48298;-58
2022/02/03 00:52:13;;;;;;;;;6.67;5.67;;;;;12.50;54.08;101779.03;2046005;28;47329;-58
2022/02/03 00:53:15;;;;;;;;;4.75;4.75;;;;;12.49;54.16;101782.59;2045935;28;47271;-56
2022/02/03 00:54:20;;;;;;;;;4.75;4.75;;;;;12.48;54.25;101784.38;2046109;28;48070;-59
2022/02/03 00:55:22;;;;;;;;;4.75;4.50;;;;;12.48;54.39;101779.03;2046236;28;47195;-59
2022/02/03 00:56:36;;;;;;;;;5.00;4.00;;;;;12.49;54.33;101778.13;2046230;28;47518;-59
2022/02/03 00:57:42;;;;;;;;;4.00;4.00;;;;;12.50;54.31;101779.91;2039233;28;48045;-60
2022/02/03 00:59:09;;;;;;;;;4.25;4.25;;;;;12.49;54.29;101783.47;2047561;28;47917;-59
2022/02/03 01:00:13;;;;;;;;;4.00;4.00;;;;;12.50;54.40;101777.22;2026081;29;48137;-57
2022/02/03 01:01:18;;;;;;;;;4.00;4.00;;;;;12.50;54.26;101774.56;2024247;29;47454;-59
2022/02/03 01:02:23;;;;;;;;;5.25;4.75;;;;;12.51;54.47;101775.44;2031626;29;47126;-59
2022/02/03 01:03:27;;;;;;;;;5.25;4.75;;;;;12.51;54.28;101778.13;2031378;29;47780;-58
2022/02/03 01:04:30;;;;;;;;;6.25;4.75;;;;;12.50;54.32;101777.22;2023577;29;47795;-59
2022/02/03 01:05:31;;;;;;;;;4.00;4.00;;;;;12.51;54.71;101778.13;2024055;29;48300;-59
2022/02/03 01:06:34;;;;;;;;;5.67;5.00;;;;;12.50;54.22;101782.56;2023168;29;47763;-58
2022/02/03 01:07:37;;;;;;;;;6.00;5.00;;;;;12.51;54.22;101778.13;2023272;29;47207;-59
2022/02/03 01:08:44;;;;;;;;;5.25;4.25;;;;;12.50;54.42;101777.22;2023543;29;48016;-58
2022/02/03 01:09:57;;;;;;;;;6.00;6.00;;;;;12.51;54.37;101783.44;2031214;29;47869;-59
2022/02/03 01:11:14;;;;;;;;;4.75;4.75;;;;;12.50;54.17;101782.56;2031225;29;47356;-59
2022/02/03 01:12:26;;;;;;;;;4.00;4.00;;;;;12.49;54.45;101778.13;2030355;29;47674;-58
2022/02/03 01:13:40;;;;;;;;;4.50;4.50;;;;;12.49;54.32;101778.13;2024582;29;48031;-58
2022/02/03 01:17:49;;;;;;;;;3.00;3.00;;;;;12.48;54.38;101772.84;1992403;29;48142;-59
2022/02/03 01:33:26;;;;;;;;;3.75;3.75;;;;;12.44;54.27;101777.28;2001064;29;47118;-59
2022/02/03 01:34:05;;;;;;;;;5.25;5.00;;;;;12.35;54.59;101767.66;2004112;29;47476;-57
2022/02/03 01:43:11;;;;;;;;;4.00;4.00;;;;;12.36;54.42;101782.72;2004474;29;46790;-58
2022/02/03 01:43:22;;;;;;;;;5.00;5.00;;;;;12.31;54.42;101773.91;2015417;29;47441;-57
2022/02/03 01:44:42;;;;;;;;;4.00;4.00;;;;;12.31;54.49;101767.69;2016014;29;47815;-59
2022/02/03 01:49:40;;;;;;;;;3.75;3.75;;;;;12.32;54.45;101764.13;2023466;29;48047;-57
2022/02/03 01:52:10;;;;;;;;;6.00;3.25;;;;;12.31;54.37;101768.56;2008101;29;47389;-58
2022/02/03 01:53:13;;;;;;;;;6.50;6.50;;;;;12.33;54.55;101771.25;2024944;28;47589;-57
2022/02/03 01:54:16;;;;;;;;;7.50;6.50;;;;;12.32;54.48;101772.13;2051340;28;47681;-58
2022/02/03 01:55:26;;;;;;;;;3.50;3.50;;;;;12.32;54.32;101772.13;2057073;28;47356;-59
2022/02/03 01:56:42;;;;;;;;;5.00;5.00;;;;;12.32;54.40;101767.72;2082673;28;47537;-57
2022/02/03 01:58:01;;;;;;;;;7.50;4.25;;;;;12.32;54.34;101757.06;2088955;28;47376;-57
2022/02/03 01:59:03;;;;;;;;;4.25;3.50;;;;;12.31;54.30;101760.59;2080250;28;47685;-59
2022/02/03 02:00:07;;;;;;;;;2.50;2.50;;;;;12.31;54.30;101765.91;2090373;28;47817;-58
2022/02/03 02:01:12;;;;;;;;;7.00;6.00;;;;;12.31;54.33;101759.72;2096142;28;47434;-59
2022/02/03 02:02:12;;;;;;;;;4.00;4.00;;;;;12.29;54.41;101758.84;2088906;28;48212;-57
2022/02/03 02:03:16;;;;;;;;;4.00;4.00;;;;;12.29;54.12;101761.53;2093565;28;47507;-57
2022/02/03 02:04:49;;;;;;;;;3.25;2.75;;;;;12.28;54.27;101767.75;2097026;28;48647;-60
2022/02/03 02:06:11;;;;;;;;;3.33;2.67;;;;;12.28;54.32;101759.75;2080862;28;47426;-59
2022/02/03 02:07:46;;;;;;;;;4.25;4.00;;;;;12.27;54.43;101764.19;2080544;28;47880;-57
2022/02/03 02:09:04;;;;;;;;;4.75;4.75;;;;;12.25;54.28;101750.03;2080463;28;47579;-57
2022/02/03 02:11:36;;;;;;;;;6.75;6.00;;;;;12.24;54.30;101750.06;2092920;28;46353;-58
2022/02/03 02:13:08;;;;;;;;;5.75;4.75;;;;;12.24;54.19;101752.72;2094500;28;47730;-58
2022/02/03 02:38:27;;;;;;;;;4.00;4.00;;;;;12.11;54.10;101717.41;2071196;28;48070;-58
2022/02/03 02:43:04;;;;;;;;;5.75;4.50;;;;;12.08;54.61;101699.69;2046557;28;47871;-58
2022/02/03 02:44:15;;;;;;;;;4.00;4.00;;;;;12.08;54.31;101682.84;2047097;28;47099;-59
2022/02/03 02:45:25;;;;;;;;;4.00;4.00;;;;;12.09;54.45;101684.59;2052163;28;46623;-59
2022/02/03 02:46:34;;;;;;;;;4.25;4.00;;;;;12.08;54.30;101667.75;2054789;28;47799;-58
2022/02/03 02:47:43;;;;;;;;;4.00;4.00;;;;;12.10;54.31;101670.41;2047065;28;47444;-60
2022/02/03 02:48:56;;;;;;;;;4.00;4.00;;;;;12.11;54.19;101668.63;2054326;28;47373;-58
2022/02/03 02:50:30;;;;;;;;;4.00;4.00;;;;;12.10;54.10;101658.88;2054996;28;47510;-58
2022/02/03 02:51:46;;;;;;;;;4.00;3.00;;;;;12.12;54.33;101651.75;2053564;28;47991;-59
2022/02/03 02:53:10;;;;;;;;;3.00;3.00;;;;;12.13;54.20;101646.41;2054003;28;48332;-58
2022/02/03 02:54:34;;;;;;;;;3.75;3.00;;;;;12.14;54.07;101637.53;2054921;28;45857;-60
2022/02/03 02:55:58;;;;;;;;;5.25;3.00;;;;;12.16;54.17;101637.50;2046794;28;47858;-58
2022/02/03 03:34:46;;;;;;;;;5.25;4.75;;;;;12.10;53.77;101553.34;2062502;28;47741;-59
2022/02/03 03:35:55;;;;;;;;;4.00;4.00;;;;;12.11;54.01;101551.56;2057104;28;48418;-57
2022/02/03 03:36:58;;;;;;;;;4.75;4.75;;;;;12.12;53.89;101556.84;2083071;28;47910;-58
2022/02/03 03:38:00;;;;;;;;;6.00;3.50;;;;;12.11;53.87;101546.22;2091338;28;47664;-59
2022/02/03 03:39:02;;;;;;;;;4.75;4.00;;;;;12.10;53.89;101547.13;2096681;28;48107;-59
2022/02/03 03:40:05;;;;;;;;;4.25;4.25;;;;;12.10;53.64;101550.66;2096568;28;45819;-58
2022/02/03 03:41:06;;;;;;;;;4.00;3.00;;;;;12.09;53.31;101548.91;2096615;28;48406;-60
2022/02/03 03:42:13;;;;;;;;;4.00;4.00;;;;;12.07;53.94;101551.59;2096287;28;47413;-59
2022/02/03 03:43:28;;;;;;;;;5.00;5.00;;;;;12.08;54.00;101544.50;2088957;28;47538;-60
2022/02/03 03:44:30;;;;;;;;;5.50;4.25;;;;;12.09;53.81;101543.59;2074860;28;47995;-60
2022/02/03 03:45:32;;;;;;;;;5.25;4.25;;;;;12.10;53.92;101541.81;2078845;28;47887;-57
2022/02/03 03:46:38;;;;;;;;;5.25;5.25;;;;;12.10;54.01;101550.66;2070569;28;47752;-58
2022/02/03 03:47:41;;;;;;;;;5.00;5.00;;;;;12.11;53.77;101548.88;2083430;28;47966;-59
2022/02/03 03:49:19;;;;;;;;;3.75;3.75;;;;;12.08;53.85;101544.50;2096915;28;45824;-60
2022/02/03 03:50:25;;;;;;;;;5.00;5.00;;;;;12.08;53.93;101539.19;2091749;28;46567;-58
2022/02/03 03:51:31;;;;;;;;;5.33;5.00;;;;;12.09;53.67;101540.94;2079697;28;47800;-57
2022/02/03 03:52:43;;;;;;;;;5.50;5.50;;;;;12.10;53.88;101541.81;2088575;28;47881;-58
2022/02/03 03:54:00;;;;;;;;;5.50;5.00;;;;;12.11;53.97;101538.25;2096217;28;47906;-59
2022/02/03 03:55:19;;;;;;;;;5.00;4.25;;;;;12.12;53.87;101532.03;2096619;28;48187;-60
2022/02/03 03:56:36;;;;;;;;;7.00;6.50;;;;;12.11;53.70;101528.47;2093550;28;47008;-57
2022/02/03 04:00:44;;;;;;;;;4.50;4.50;;;;;12.07;53.58;101526.78;2060982;28;47220;-59
2022/02/03 04:30:06;;;;;;;;;5.25;3.50;;;;;11.91;53.96;101507.47;2022394;29;47366;-58
2022/02/03 04:31:48;;;;;;;;;4.25;4.25;;;;;11.92;53.83;101511.91;2021777;29;47963;-58
2022/02/03 04:34:33;;;;;;;;;5.00;5.00;;;;;11.93;54.01;101508.34;2014907;29;48327;-60
2022/02/03 04:55:43;;;;;;;;;4.75;4.75;;;;;11.92;54.15;101464.00;2035949;28;48058;-59
2022/02/03 05:03:36;;;;;;;;;6.00;5.50;;;;;11.91;54.27;101446.31;2038097;28;47517;-57
2022/02/03 05:05:41;;;;;;;;;5.50;5.25;;;;;11.90;54.09;101449.00;2037949;28;47959;-58
2022/02/03 05:07:23;;;;;;;;;4.00;4.00;;;;;11.88;54.39;101446.34;2030293;29;46993;-57
2022/02/03 05:09:01;;;;;;;;;4.25;4.25;;;;;11.89;54.28;101441.91;2033211;28;47663;-59
2022/02/03 05:24:41;;;;;;;;;5.00;4.75;;;;;11.81;54.34;101436.69;2044431;28;47575;-57
2022/02/03 05:32:34;;;;;;;;;6.00;4.50;;;;;11.81;54.51;101439.34;2029470;29;47527;-59
2022/02/03 05:49:39;;;;;;;;;5.00;5.00;;;;;11.75;54.57;101423.47;2034781;28;47896;-58
2022/02/03 05:54:38;;;;;;;;;4.25;4.25;;;;;11.71;54.38;101425.31;2031221;28;47647;-59
2022/02/03 06:02:35;;;;;;;;;8.25;8.25;;;;;11.65;54.41;101428.06;2043867;28;48052;-57
2022/02/03 06:04:54;;;;;;;;;10.75;9.50;;;;;11.64;54.56;101430.75;2041027;28;48029;-59
2022/02/03 06:13:33;;;;;;;;;7.25;7.25;;;;;11.61;54.44;101407.75;2057970;28;47750;-59
2022/02/03 06:14:43;;;;;;;;;9.75;9.25;;;;;11.61;54.80;101412.19;2047452;28;47698;-57
2022/02/03 06:16:17;;;;;;;;;8.75;8.00;;;;;11.60;54.44;101407.75;2055145;28;48089;-60
2022/02/03 06:22:39;;;;;;;;;7.00;7.00;;;;;11.60;54.70;101392.69;2054919;28;48013;-59
2022/02/03 06:27:22;;;;;;;;;12.50;11.25;;;;;11.61;54.77;101385.59;2086691;28;47772;-58
2022/02/03 06:27:48;;;;;;;;;9.00;8.25;;;;;11.60;54.36;101379.41;2079641;28;47511;-60
2022/02/03 06:28:48;;;;;;;;;9.00;8.25;;;;;11.60;54.65;101373.22;2071742;28;48142;-59
2022/02/03 06:29:52;;;;;;;;;10.00;10.00;;;;;11.59;54.63;101364.34;2070531;28;48234;-57
2022/02/03 06:30:53;;;;;;;;;8.50;8.50;;;;;11.59;54.79;101366.13;2080534;28;48345;-58
2022/02/03 06:31:53;;;;;;;;;9.33;9.33;;;;;11.59;54.48;101364.34;2080376;28;47263;-58
2022/02/03 06:32:54;;;;;;;;;9.67;9.67;;;;;11.60;54.51;101366.09;2088596;28;47596;-59
2022/02/03 06:33:56;;;;;;;;;10.67;8.00;;;;;11.59;54.73;101364.34;2088401;28;47639;-60
2022/02/03 06:34:56;;;;;;;;;12.00;8.25;;;;;11.58;54.73;101362.59;2082127;28;47632;-59
2022/02/03 06:35:56;;;;;;;;;9.00;9.00;;;;;11.58;54.76;101361.72;2080494;28;47348;-58
2022/02/03 06:36:57;;;;;;;;;9.67;9.33;;;;;11.58;54.51;101364.38;2079675;28;47869;-56
2022/02/03 06:37:57;;;;;;;;;9.00;9.00;;;;;11.57;54.70;101359.97;2080063;28;48337;-60
2022/02/03 06:38:58;;;;;;;;;10.00;9.67;;;;;11.56;54.72;101355.53;2080205;28;47456;-59
2022/02/03 06:39:58;;;;;;;;;9.00;9.00;;;;;11.55;54.50;101354.66;2088470;28;47399;-60
2022/02/03 06:40:59;;;;;;;;;9.67;9.67;;;;;11.55;54.61;101356.44;2088464;28;47313;-56
2022/02/03 06:42:01;;;;;;;;;8.67;8.67;;;;;11.54;54.75;101358.22;2081684;28;47674;-60
2022/02/03 06:43:02;;;;;;;;;9.50;8.25;;;;;11.53;54.77;101352.94;2080411;28;48348;-60
2022/02/03 06:44:02;;;;;;;;;9.33;8.33;;;;;11.52;54.87;101354.69;2080129;28;47248;-58
2022/02/03 06:45:43;;;;;;;;;14.67;12.33;;;;;11.50;54.65;101344.09;2076031;28;47550;-58
2022/02/03 06:46:31;;;;;;;;;7.75;7.75;;;;;11.49;54.92;101347.66;2078183;28;47734;-60
2022/02/03 06:49:10;;;;;;;;;10.25;9.25;;;;;11.48;54.91;101345.03;2066247;28;47934;-59
2022/02/03 06:51:22;;;;;;;;;11.00;11.00;;;;;11.48;54.92;101337.94;2071417;28;47557;-58
2022/02/03 06:52:35;;;;;;;;;9.40;9.40;;;;;11.48;55.01;101342.38;2071770;28;47932;-57
2022/02/03 06:53:39;;;;;;;;;10.00;9.00;;;;;11.47;54.88;101338.84;2071048;28;48207;-66
2022/02/03 06:56:03;;;;;;;;;11.50;11.50;;;;;11.49;54.89;101341.47;2063080;28;47605;-59
2022/02/03 06:57:09;;;;;;;;;8.25;8.00;;;;;11.48;55.02;101342.38;2061783;28;47725;-58
2022/02/03 06:59:21;;;;;;;;;10.80;10.80;;;;;11.49;54.69;101347.66;2062981;28;46145;-58
2022/02/03 07:00:28;;;;;;;;;9.00;7.80;;;;;11.51;54.73;101355.59;2067986;28;46923;-58
2022/02/03 07:01:39;;;;;;;;;10.75;10.00;;;;;11.50;54.67;101352.06;2061783;28;47287;-59
2022/02/03 07:02:42;;;;;;;;;10.00;9.25;;;;;11.51;54.57;101347.63;2062946;28;47991;-58
2022/02/03 07:03:52;;;;;;;;;9.25;9.25;;;;;11.52;54.90;101346.72;2063883;28;47198;-59
2022/02/03 07:04:52;;;;;;;;;7.75;7.75;;;;;11.53;54.60;101345.81;2067394;28;47954;-60
2022/02/03 07:05:52;;;;;;;;;8.00;8.00;;;;;11.53;54.69;101348.47;2071534;28;47920;-57
2022/02/03 07:06:53;;;;;;;;;9.67;9.67;;;;;11.52;54.87;101346.72;2063572;28;47502;-57
2022/02/03 07:07:54;;;;;;;;;11.67;8.00;;;;;11.52;54.58;101352.03;2060759;28;47361;-59
2022/02/03 07:08:55;;;;;;;;;8.50;8.50;;;;;11.53;54.71;101352.94;2071299;28;47262;-59
2022/02/03 07:09:56;;;;;;;;;13.50;12.00;;;;;11.53;54.87;101366.22;2059987;28;48091;-56
2022/02/03 07:10:57;;;;;;;;;9.67;9.67;;;;;11.51;54.70;101358.25;2058965;28;47610;-59
2022/02/03 07:11:57;;;;;;;;;10.50;10.50;;;;;11.50;54.71;101360.03;2070914;28;47658;-58
2022/02/03 07:12:59;;;;;;;;;12.00;10.75;;;;;11.50;54.69;101362.72;2067023;28;46812;-56
2022/02/03 07:13:59;;;;;;;;;10.25;10.25;;;;;11.52;54.89;101360.03;2062923;28;47113;-56
2022/02/03 07:15:02;;;;;;;;;9.00;9.00;;;;;11.52;54.84;101360.03;2062878;28;46987;-58
2022/02/03 07:16:03;;;;;;;;;8.75;8.75;;;;;11.52;54.51;101346.72;2062611;28;45941;-56
2022/02/03 07:17:05;;;;;;;;;11.00;11.00;;;;;11.52;54.91;101344.06;2063459;28;48251;-60
2022/02/03 07:18:05;;;;;;;;;10.00;10.00;;;;;11.53;54.65;101352.94;2070043;28;48092;-58
2022/02/03 07:19:06;;;;;;;;;13.00;13.00;;;;;11.53;54.65;101355.59;2071577;28;46499;-56
2022/02/03 07:20:10;;;;;;;;;12.67;12.67;;;;;11.52;54.41;101364.47;2071535;28;48438;-60
2022/02/03 07:21:13;;;;;;;;;9.75;9.75;;;;;11.49;54.64;101352.97;2062392;28;47178;-58
2022/02/03 07:22:15;;;;;;;;;12.25;12.25;;;;;11.48;54.51;101353.88;2058090;28;47713;-56
2022/02/03 07:23:15;;;;;;;;;11.00;10.00;;;;;11.47;54.67;101360.09;2062296;28;47636;-60
2022/02/03 07:24:16;;;;;;;;;8.50;7.50;;;;;11.47;54.56;101362.75;2062275;28;47521;-59
2022/02/03 07:25:17;;;;;;;;;11.00;11.00;;;;;11.47;54.56;101364.53;2059203;28;47735;-56
2022/02/03 07:26:17;;;;;;;;;10.67;10.00;;;;;11.47;55.02;101361.88;2061487;28;47651;-60
2022/02/03 07:27:20;;;;;;;;;10.33;10.33;;;;;11.46;54.57;101363.66;2078360;28;47571;-58
2022/02/03 07:28:20;;;;;;;;;15.80;15.80;;;;;11.45;54.74;101353.06;2080109;28;47980;-60
2022/02/03 07:29:21;;;;;;;;;14.00;13.00;;;;;11.42;54.64;101358.41;2080367;28;47294;-59
2022/02/03 07:30:21;;;;;;;;;11.25;11.25;;;;;11.41;54.76;101354.84;2073440;28;46903;-59
2022/02/03 07:31:21;;;;;;;;;10.33;10.33;;;;;11.40;54.82;101355.75;2074689;28;47329;-58
2022/02/03 07:32:23;;;;;;;;;12.00;11.25;;;;;11.41;54.65;101364.63;2075758;28;47315;-59
2022/02/03 07:33:23;;;;;;;;;12.20;12.20;;;;;11.41;54.84;101364.63;2079657;28;47012;-59
2022/02/03 07:34:24;;;;;;;;;13.25;13.25;;;;;11.41;54.63;101360.19;2080030;28;47982;-58
2022/02/03 07:35:27;;;;;;;;;12.00;11.50;;;;;11.42;54.63;101364.59;2073323;28;47681;-59
2022/02/03 07:36:27;;;;;;;;;11.00;11.00;;;;;11.42;54.80;101369.03;2080323;28;47462;-60
2022/02/03 07:37:28;;;;;;;;;13.00;11.75;;;;;11.43;55.03;101363.72;2080746;28;47460;-60
2022/02/03 07:38:29;;;;;;;;;12.40;12.40;;;;;11.45;54.92;101369.00;2083168;28;47877;-59
2022/02/03 07:39:29;;;;;;;;;11.00;11.00;;;;;11.45;54.68;101356.59;2079075;28;47248;-61
2022/02/03 07:40:30;;;;;;;;;11.00;10.00;;;;;11.46;54.97;101352.16;2079872;28;47139;-57
2022/02/03 07:41:31;;;;;;;;;14.25;13.25;;;;;11.46;54.77;101371.63;2078235;28;48297;-57
2022/02/03 07:42:31;;;;;;;;;13.50;13.00;;;;;11.47;54.79;101370.72;2082580;28;48061;-59
2022/02/03 07:43:32;;;;;;;;;15.00;14.75;;;;;11.48;54.87;101368.94;2074161;28;47340;-59
2022/02/03 07:44:32;;;;;;;;;18.00;16.25;;;;;11.47;54.39;101362.75;2079557;28;47810;-57
2022/02/03 07:45:33;;;;;;;;;15.25;14.25;;;;;11.47;54.78;101377.84;2071585;28;47849;-58
2022/02/03 07:46:34;;;;;;;;;14.00;14.00;;;;;11.45;54.54;101371.66;2062856;28;47882;-58
2022/02/03 07:47:45;;;;;;;;;12.75;12.75;;;;;11.43;54.88;101381.41;2071819;28;47185;-58
2022/02/03 07:48:46;;;;;;;;;15.60;15.60;;;;;11.42;54.66;101375.22;2088417;28;47402;-59
2022/02/03 07:49:47;;;;;;;;;13.00;13.00;;;;;11.43;54.58;101370.78;2082407;28;47379;-59
2022/02/03 07:50:48;;;;;;;;;12.67;12.67;;;;;11.42;54.73;101361.06;2079923;28;47290;-59
2022/02/03 07:51:48;;;;;;;;;15.75;15.75;;;;;11.41;54.65;101351.31;2081742;28;48177;-59
2022/02/03 07:52:49;;;;;;;;;13.50;13.50;;;;;11.40;54.73;101353.09;2086758;28;47802;-58
2022/02/03 07:53:49;;;;;;;;;15.50;13.50;;;;;11.39;54.78;101353.13;2079697;28;48217;-59
2022/02/03 07:54:50;;;;;;;;;13.50;13.00;;;;;11.38;54.72;101357.56;2079554;28;47705;-59
2022/02/03 07:55:50;;;;;;;;;10.75;10.75;;;;;11.38;54.91;101365.53;2079667;28;47847;-59
2022/02/03 07:56:51;;;;;;;;;12.00;12.00;;;;;11.37;54.84;101361.13;2079596;28;48442;-58
2022/02/03 07:57:53;;;;;;;;;14.00;12.75;;;;;11.37;54.70;101362.91;2085126;28;47265;-59
2022/02/03 07:58:53;;;;;;;;;12.00;12.00;;;;;11.37;54.70;101368.22;2079348;28;46703;-59
2022/02/03 07:59:55;;;;;;;;;13.75;13.75;;;;;11.36;54.82;101369.13;2079270;28;47646;-59
2022/02/03 08:00:55;;;;;;;;;13.00;11.80;;;;;11.37;55.06;101368.22;2085920;28;47171;-58
2022/02/03 08:01:56;;;;;;;;;12.25;12.25;;;;;11.35;54.65;101364.72;2078402;28;47686;-60
2022/02/03 08:02:56;;;;;;;;;13.75;13.75;;;;;11.35;54.84;101362.06;2074725;28;47262;-59
2022/02/03 08:03:58;;;;;;;;;13.00;13.00;;;;;11.35;54.44;101360.28;2075198;28;47559;-59
2022/02/03 08:05:02;;;;;;;;;16.00;15.00;;;;;11.35;54.94;101351.44;2061409;28;46599;-58
2022/02/03 08:06:07;;;;;;;;;13.80;12.60;;;;;11.36;54.79;101355.84;2074943;28;48182;-59
2022/02/03 08:07:07;;;;;;;;;13.20;13.00;;;;;11.36;54.47;101362.03;2079607;28;47646;-59
2022/02/03 08:08:27;;;;;;;;;15.00;13.00;;;;;11.37;54.88;101357.59;2081119;28;47980;-59
2022/02/03 08:09:43;;;;;;;;;11.40;10.60;;;;;11.37;54.61;101358.47;2073026;28;47899;-60
2022/02/03 08:10:52;;;;;;;;;9.50;9.50;;;;;11.36;54.81;101354.06;2074353;28;48439;-60
2022/02/03 08:11:54;;;;;;;;;13.60;13.60;;;;;11.37;54.49;101366.44;2074778;28;47761;-60
2022/02/03 08:12:59;;;;;;;;;14.80;13.80;;;;;11.37;54.51;101369.09;2077074;28;47888;-59
2022/02/03 08:14:13;;;;;;;;;12.00;11.40;;;;;11.37;54.58;101371.75;2081889;28;47896;-60
2022/02/03 08:15:14;;;;;;;;;10.20;10.20;;;;;11.36;54.64;101354.06;2078819;28;47452;-59
2022/02/03 08:16:53;;;;;;;;;11.80;11.80;;;;;11.36;54.45;101362.03;2074595;28;47921;-58
2022/02/03 08:17:42;;;;;;;;;14.60;13.80;;;;;11.34;54.56;101355.00;2073375;28;47773;-60
2022/02/03 08:18:47;;;;;;;;;14.20;12.60;;;;;11.32;54.65;101356.81;2049738;28;47172;-61
2022/02/03 08:19:57;;;;;;;;;11.25;10.50;;;;;11.30;54.50;101353.25;2048689;28;47676;-61
2022/02/03 08:21:02;;;;;;;;;15.75;15.25;;;;;11.27;54.51;101359.50;2074232;28;47655;-59
2022/02/03 08:22:15;;;;;;;;;11.25;11.00;;;;;11.26;54.63;101370.16;2072951;28;47915;-60
2022/02/03 08:24:24;;;;;;;;;13.80;13.80;;;;;11.26;54.77;101383.44;2076147;28;47586;-60
2022/02/03 08:25:28;;;;;;;;;16.60;13.00;;;;;11.25;54.66;101379.03;2077599;28;47807;-59
2022/02/03 08:26:54;;;;;;;;;14.00;12.75;;;;;11.24;54.70;101366.66;2076848;28;48035;-60
2022/02/03 08:31:38;;;;;;;;;13.00;11.40;;;;;11.24;55.07;101367.53;2086849;28;47419;-59
2022/02/03 08:32:44;;;;;;;;;12.20;11.00;;;;;11.26;54.97;101379.00;2071970;28;47624;-59
2022/02/03 08:33:48;;;;;;;;;14.00;13.60;;;;;11.26;54.71;101373.69;2073088;28;47608;-58
2022/02/03 08:35:57;;;;;;;;;13.80;13.80;;;;;11.26;54.92;101376.34;2079832;28;47043;-59
2022/02/03 08:37:00;;;;;;;;;14.60;13.00;;;;;11.27;54.89;101367.47;2079505;28;48340;-59
2022/02/03 08:38:13;;;;;;;;;13.20;13.20;;;;;11.26;54.85;101355.09;2079768;28;48357;-60
2022/02/03 08:39:19;;;;;;;;;18.80;16.40;;;;;11.26;54.66;101356.88;2079635;28;47444;-60
2022/02/03 08:40:43;;;;;;;;;14.20;14.20;;;;;11.25;54.69;101356.00;2080367;28;47907;-60
2022/02/03 08:41:44;;;;;;;;;13.00;13.00;;;;;11.26;54.97;101354.22;2080151;28;46983;-58
2022/02/03 08:42:45;;;;;;;;;13.75;13.75;;;;;11.25;54.80;101350.69;2079674;28;47615;-58
2022/02/03 08:43:46;;;;;;;;;17.50;13.75;;;;;11.25;54.92;101358.66;2079481;28;47789;-60
2022/02/03 08:44:47;;;;;;;;;16.20;12.40;;;;;11.25;54.91;101352.47;2079690;28;47744;-59
2022/02/03 08:45:47;;;;;;;;;14.50;14.50;;;;;11.25;54.74;101352.47;2079910;28;47669;-58
2022/02/03 08:46:48;;;;;;;;;17.75;16.75;;;;;11.24;54.64;101354.25;2079870;28;47376;-61
2022/02/03 08:47:48;;;;;;;;;17.50;15.00;;;;;11.24;54.99;101348.94;2079596;28;47735;-59
2022/02/03 08:48:49;;;;;;;;;11.75;11.75;;;;;11.24;54.48;101337.44;2079776;28;47463;-60
2022/02/03 08:49:49;;;;;;;;;18.25;14.75;;;;;11.23;54.69;101340.97;2079180;28;47883;-58
2022/02/03 08:50:50;;;;;;;;;11.25;10.25;;;;;11.23;54.83;101336.53;2073233;28;47271;-61
2022/02/03 08:51:51;;;;;;;;;13.00;12.50;;;;;11.22;54.58;101345.41;2079042;28;47372;-58
2022/02/03 08:53:55;;;;;;;;;11.00;11.00;;;;;11.22;54.64;101333.91;2070093;28;45958;-59
2022/02/03 08:55:06;;;;;;;;;15.80;15.80;;;;;11.20;54.86;101334.81;2074562;28;47616;-57
2022/02/03 08:57:18;;;;;;;;;16.20;16.20;;;;;11.23;55.00;101328.56;2079903;28;47574;-60
2022/02/03 09:31:48;;;;;;;;;16.50;16.50;;;;;11.24;55.40;101329.44;2010140;29;45791;-60
2022/02/03 09:40:06;;;;;;;;;16.20;16.20;;;;;11.26;55.18;101317.91;2015238;29;48363;-57
2022/02/03 09:41:26;;;;;;;;;16.50;16.00;;;;;11.26;55.30;101325.00;2005370;29;48295;-58
2022/02/03 09:53:21;;;;;;;;;16.50;15.75;;;;;11.33;55.47;101294.78;2023860;29;48043;-58
2022/02/03 09:57:39;;;;;;;;;20.60;16.00;;;;;11.31;55.71;101284.19;2041337;28;48167;-57
2022/02/03 09:58:54;;;;;;;;;15.20;13.80;;;;;11.33;55.61;101284.16;2039371;28;47936;-60
2022/02/03 10:00:04;;;;;;;;;17.80;17.80;;;;;11.35;55.60;101290.31;2050109;28;47707;-57
2022/02/03 10:01:08;;;;;;;;;18.25;16.75;;;;;11.36;55.63;101287.63;2048232;28;48268;-58
2022/02/03 10:02:16;;;;;;;;;13.60;13.60;;;;;11.36;55.61;101292.06;2052170;28;47878;-58
2022/02/03 10:03:48;;;;;;;;;15.80;15.80;;;;;11.38;55.35;101285.81;2053341;28;47103;-55
2022/02/03 10:04:58;;;;;;;;;16.50;15.00;;;;;11.38;55.46;101280.50;2048633;28;47832;-59
2022/02/03 10:07:09;;;;;;;;;15.67;15.67;;;;;11.38;55.53;101282.28;2041283;28;47641;-58
2022/02/03 10:08:18;;;;;;;;;14.75;14.00;;;;;11.38;55.39;101279.63;2052155;28;47439;-57
2022/02/03 10:09:38;;;;;;;;;18.00;18.00;;;;;11.37;55.44;101277.88;2050285;28;48089;-60
2022/02/03 10:10:39;;;;;;;;;20.60;19.80;;;;;11.36;55.29;101277.00;2040461;28;47803;-58
2022/02/03 10:11:40;;;;;;;;;17.80;17.80;;;;;11.36;55.25;101282.31;2047516;28;48149;-57
2022/02/03 10:12:42;;;;;;;;;18.50;18.50;;;;;11.36;55.57;101282.31;2046989;28;47319;-57
2022/02/03 10:13:53;;;;;;;;;14.50;14.25;;;;;11.37;55.45;101291.16;2046691;28;47743;-58
2022/02/03 10:14:55;;;;;;;;;16.00;15.50;;;;;11.39;55.53;101287.56;2046822;28;46607;-58
2022/02/03 10:16:06;;;;;;;;;19.40;16.80;;;;;11.40;55.37;101285.78;2053565;28;48338;-58
2022/02/03 10:17:08;;;;;;;;;16.40;16.40;;;;;11.40;55.53;101293.75;2089615;28;47300;-58
2022/02/03 10:18:22;;;;;;;;;13.40;13.00;;;;;11.40;55.64;101291.97;2088503;28;47421;-60
2022/02/03 10:19:29;;;;;;;;;14.00;13.80;;;;;11.39;55.20;101287.56;2090041;28;48042;-59
2022/02/03 10:20:30;;;;;;;;;17.75;16.25;;;;;11.40;55.33;101291.97;2097598;28;47736;-60
2022/02/03 10:21:30;;;;;;;;;19.00;19.00;;;;;11.41;55.34;101301.72;2097666;28;47796;-59
2022/02/03 10:22:31;;;;;;;;;14.00;14.00;;;;;11.42;55.34;101300.81;2096119;28;47194;-59
2022/02/03 10:23:32;;;;;;;;;14.00;14.00;;;;;11.43;55.61;101304.34;2089107;28;47819;-59
2022/02/03 10:24:35;;;;;;;;;17.25;16.25;;;;;11.44;55.30;101300.81;2088817;28;45623;-60
2022/02/03 10:25:38;;;;;;;;;17.40;17.00;;;;;11.44;55.23;101299.03;2088645;28;48138;-58
2022/02/03 10:26:42;;;;;;;;;14.75;14.75;;;;;11.41;55.04;101296.41;2095614;28;47456;-60
2022/02/03 10:27:47;;;;;;;;;16.25;16.25;;;;;11.39;55.11;101287.56;2089208;28;48412;-58
2022/02/03 10:28:53;;;;;;;;;19.75;17.75;;;;;11.38;55.20;101299.09;2088602;28;48769;-59
2022/02/03 10:30:12;;;;;;;;;16.00;14.75;;;;;11.37;55.08;101289.38;2079889;28;47393;-57
2022/02/03 10:31:13;;;;;;;;;19.40;18.20;;;;;11.37;55.15;101292.03;2085471;28;47656;-57
2022/02/03 10:32:15;;;;;;;;;18.67;18.67;;;;;11.36;55.28;101295.59;2085712;28;47492;-58
2022/02/03 10:33:17;;;;;;;;;17.40;17.40;;;;;11.36;55.26;101286.75;2080674;28;47047;-58